createdAt,value
2022-09-04T00:01:56.864Z,49.05
2022-09-04T00:07:23.722Z,48.71
2022-09-04T00:12:16.662Z,48.94
2022-09-04T00:17:16.589Z,49.28
2022-09-04T00:22:16.500Z,49.34
2022-09-04T00:27:16.440Z,49.45
2022-09-04T00:32:16.462Z,49.42
2022-09-04T00:37:16.322Z,49.51
2022-09-04T00:42:16.245Z,49.71
2022-09-04T00:47:16.164Z,49.74
2022-09-04T00:52:16.081Z,49.68
2022-09-04T00:57:16.010Z,50.04
2022-09-04T01:02:16.036Z,49.77
2022-09-04T01:07:15.900Z,50.16
2022-09-04T01:12:15.804Z,49.95
2022-09-04T01:17:15.777Z,50.22
2022-09-04T01:22:15.677Z,50.25
2022-09-04T01:27:15.637Z,50.37
2022-09-04T01:32:15.546Z,50.52
2022-09-04T01:37:15.488Z,50.58
2022-09-04T01:42:15.393Z,50.46
2022-09-04T01:47:15.352Z,50.52
2022-09-04T01:52:15.273Z,50.73
2022-09-04T01:57:15.890Z,50.85
2022-09-04T02:02:15.205Z,50.97
2022-09-04T02:07:15.111Z,51.01
2022-09-04T02:12:15.005Z,51.16
2022-09-04T02:17:14.963Z,51.47
2022-09-04T02:22:14.901Z,51.50
2022-09-04T02:27:14.799Z,51.47
2022-09-04T02:32:14.733Z,51.38
2022-09-04T02:37:14.661Z,51.54
2022-09-04T02:42:14.595Z,51.50
2022-09-04T02:47:14.623Z,51.32
2022-09-04T02:52:14.457Z,51.25
2022-09-04T02:57:14.386Z,51.16
2022-09-04T03:02:14.370Z,51.07
2022-09-04T03:07:14.253Z,51.07
2022-09-04T03:12:14.266Z,50.58
2022-09-04T03:17:14.123Z,50.79
2022-09-04T03:22:14.065Z,50.64
2022-09-04T03:27:13.976Z,50.49
2022-09-04T03:32:16.677Z,50.70
2022-09-04T03:37:13.842Z,50.61
2022-09-04T03:42:13.792Z,50.61
2022-09-04T03:47:13.701Z,50.52
2022-09-04T03:52:13.675Z,50.49
2022-09-04T03:57:13.577Z,50.52
2022-09-04T04:02:13.516Z,50.52
2022-09-04T04:07:13.493Z,50.52
2022-09-04T04:12:13.369Z,50.52
2022-09-04T04:17:14.872Z,50.55
2022-09-04T04:22:13.252Z,50.58
2022-09-04T04:27:13.168Z,50.61
2022-09-04T04:32:13.102Z,50.88
2022-09-04T04:37:13.083Z,50.76
2022-09-04T04:42:12.968Z,50.79
2022-09-04T04:47:12.958Z,51.07
2022-09-04T04:52:12.885Z,51.04
2022-09-04T04:57:12.909Z,51.04
2022-09-04T05:02:12.799Z,50.91
2022-09-04T05:07:12.634Z,51.04
2022-09-04T05:12:12.585Z,51.01
2022-09-04T05:17:12.539Z,50.85
2022-09-04T05:22:12.438Z,50.85
2022-09-04T05:27:12.362Z,50.70
2022-09-04T05:32:12.295Z,50.64
2022-09-04T05:37:12.229Z,50.55
2022-09-04T05:42:12.190Z,50.34
2022-09-04T05:47:12.100Z,50.13
2022-09-04T05:52:12.017Z,50.07
2022-09-04T05:57:12.005Z,49.92
2022-09-04T06:02:21.986Z,49.92
2022-09-04T06:07:14.695Z,49.39
2022-09-04T06:12:19.247Z,49.28
2022-09-04T06:17:14.977Z,49.45
2022-09-04T06:22:14.524Z,49.45
2022-09-04T06:27:14.452Z,49.28
2022-09-04T06:32:14.371Z,49.19
2022-09-04T06:37:14.355Z,48.94
2022-09-04T06:42:14.226Z,48.88
2022-09-04T06:47:14.177Z,48.43
2022-09-04T06:52:14.105Z,48.10
2022-09-04T06:57:14.047Z,47.80
2022-09-04T07:02:14.096Z,47.66
2022-09-04T07:07:13.908Z,47.48
2022-09-04T07:12:13.839Z,47.29
2022-09-04T07:17:13.806Z,47.05
2022-09-04T07:22:13.714Z,46.87
2022-09-04T07:27:13.645Z,46.87
2022-09-04T07:32:13.546Z,46.46
2022-09-04T07:37:13.509Z,46.20
2022-09-04T07:42:13.429Z,46.00
2022-09-04T07:47:13.363Z,46.00
2022-09-04T07:52:13.461Z,45.56
2022-09-04T07:57:13.235Z,45.17
2022-09-04T08:02:13.163Z,44.88
2022-09-04T08:07:13.443Z,44.50
2022-09-04T08:12:13.137Z,44.36
2022-09-04T08:17:13.007Z,44.03
2022-09-04T08:22:12.896Z,43.67
2022-09-04T08:27:12.853Z,43.27
2022-09-04T08:32:12.810Z,43.00
2022-09-04T08:37:12.704Z,42.36
2022-09-04T08:42:12.614Z,41.98
2022-09-04T08:47:12.551Z,41.52
2022-09-04T08:52:12.468Z,41.24
2022-09-04T08:57:12.408Z,41.04
2022-09-04T09:02:12.369Z,40.60
2022-09-04T09:07:12.283Z,40.03
2022-09-04T09:12:12.206Z,39.43
2022-09-04T09:17:12.140Z,38.78
2022-09-04T09:22:12.485Z,37.60
2022-09-04T09:27:12.054Z,34.42
2022-09-04T09:32:11.935Z,31.10
2022-09-04T09:37:11.899Z,28.42
2022-09-04T09:42:11.859Z,26.02
2022-09-04T09:47:11.777Z,23.87
2022-09-04T09:52:11.715Z,22.06
2022-09-04T09:57:11.629Z,20.60
2022-09-04T10:02:11.591Z,19.37
2022-09-04T10:07:11.494Z,18.42
2022-09-04T10:12:11.421Z,17.86
2022-09-04T10:17:11.361Z,17.23
2022-09-04T10:22:11.281Z,16.88
2022-09-04T10:27:11.216Z,16.47
2022-09-04T10:32:11.478Z,16.19
2022-09-04T10:37:11.137Z,16.05
2022-09-04T10:42:11.057Z,15.88
2022-09-04T10:47:10.983Z,15.75
2022-09-04T10:52:10.950Z,15.73
2022-09-04T10:57:10.826Z,15.68
2022-09-04T11:02:10.849Z,15.65
2022-09-04T11:07:10.708Z,15.67
2022-09-04T11:12:10.657Z,15.66
2022-09-04T11:17:10.656Z,15.75
2022-09-04T11:22:10.513Z,15.79
2022-09-04T11:27:10.439Z,15.82
2022-09-04T11:32:10.352Z,15.93
2022-09-04T11:37:10.322Z,16.09
2022-09-04T11:42:10.243Z,16.33
2022-09-04T11:47:10.188Z,16.52
2022-09-04T11:52:10.442Z,16.77
2022-09-04T11:57:10.066Z,16.96
2022-09-04T12:02:10.025Z,17.12
2022-09-04T12:07:10.001Z,17.40
2022-09-04T12:12:09.961Z,17.58
2022-09-04T12:17:09.813Z,17.70
2022-09-04T12:22:09.737Z,17.97
2022-09-04T12:27:09.674Z,18.36
2022-09-04T12:32:09.665Z,18.44
2022-09-04T12:37:09.570Z,18.95
2022-09-04T12:42:09.465Z,19.32
2022-09-04T12:47:09.412Z,19.62
2022-09-04T12:52:09.342Z,20.01
2022-09-04T12:57:09.275Z,20.64
2022-09-04T13:02:09.388Z,21.18
2022-09-04T13:07:15.971Z,21.52
2022-09-04T13:12:10.083Z,22.02
2022-09-04T13:17:09.037Z,22.37
2022-09-04T13:22:08.960Z,22.61
2022-09-04T13:27:08.886Z,22.88
2022-09-04T13:32:08.821Z,23.18
2022-09-04T13:37:08.781Z,23.46
2022-09-04T13:42:08.695Z,23.51
2022-09-04T13:47:08.690Z,23.93
2022-09-04T13:52:08.572Z,24.19
2022-09-04T13:57:08.514Z,24.62
2022-09-04T14:02:08.414Z,24.84
2022-09-04T14:07:08.372Z,25.11
2022-09-04T14:12:08.308Z,25.42
2022-09-04T14:17:08.229Z,25.53
2022-09-04T14:22:08.254Z,25.73
2022-09-04T14:27:08.117Z,26.07
2022-09-04T14:32:08.075Z,26.13
2022-09-04T14:37:07.979Z,26.38
2022-09-04T14:42:07.921Z,26.73
2022-09-04T14:47:07.899Z,27.02
2022-09-04T14:52:07.780Z,27.64
2022-09-04T14:57:07.710Z,27.97
2022-09-04T15:02:07.815Z,28.23
2022-09-04T15:07:11.667Z,28.32
2022-09-04T15:12:23.827Z,28.42
2022-09-04T15:17:08.601Z,28.51
2022-09-04T15:22:07.383Z,28.77
2022-09-04T15:27:07.305Z,28.83
2022-09-04T15:32:07.238Z,28.90
2022-09-04T15:37:08.209Z,28.92
2022-09-04T15:42:07.144Z,28.90
2022-09-04T15:47:07.044Z,29.14
2022-09-04T15:52:07.017Z,29.33
2022-09-04T15:57:07.519Z,29.43
2022-09-04T16:02:06.955Z,29.72
2022-09-04T16:07:06.849Z,29.93
2022-09-04T16:12:06.751Z,30.12
2022-09-04T16:17:06.671Z,30.60
2022-09-04T16:22:06.593Z,31.00
2022-09-04T16:27:06.527Z,31.30
2022-09-04T16:32:06.603Z,31.68
2022-09-04T16:37:06.413Z,32.26
2022-09-04T16:42:06.363Z,32.51
2022-09-04T16:47:06.506Z,32.89
2022-09-04T16:52:06.193Z,33.41
2022-09-04T16:57:12.617Z,33.68
2022-09-04T17:02:07.172Z,34.06
2022-09-04T17:07:06.000Z,34.39
2022-09-04T17:12:05.926Z,34.73
2022-09-04T17:17:30.247Z,35.07
2022-09-04T17:28:14.932Z,35.55
2022-09-04T17:29:15.227Z,35.73
2022-09-04T17:32:32.187Z,35.97
2022-09-04T17:40:35.394Z,36.19
2022-09-04T17:42:10.151Z,36.22
2022-09-04T17:47:05.445Z,36.47
2022-09-04T17:52:05.464Z,36.62
2022-09-04T17:57:05.323Z,36.82
2022-09-04T18:02:05.345Z,36.95
2022-09-04T18:07:33.498Z,37.37
2022-09-04T18:12:06.126Z,37.74
2022-09-04T18:17:12.806Z,38.18
2022-09-04T18:22:26.352Z,38.29
2022-09-04T18:27:05.924Z,38.49
2022-09-04T18:37:21.499Z,38.85
2022-09-04T18:37:41.450Z,39.21
2022-09-04T18:47:46.535Z,39.73
2022-09-04T18:50:52.395Z,39.99
2022-09-04T18:52:05.699Z,40.29
2022-09-04T18:57:06.367Z,40.41
2022-09-04T19:02:04.518Z,40.60
2022-09-04T19:07:06.876Z,40.96
2022-09-04T19:12:04.304Z,41.20
2022-09-04T19:17:04.357Z,41.24
2022-09-04T19:22:04.185Z,41.36
2022-09-04T19:27:04.164Z,41.56
2022-09-04T19:32:05.094Z,41.98
2022-09-04T19:37:28.110Z,41.94
2022-09-04T19:46:02.490Z,42.44
2022-09-04T19:47:04.983Z,42.96
2022-09-04T19:53:24.114Z,42.92
2022-09-04T19:57:32.325Z,43.22
2022-09-04T20:02:04.645Z,43.49
2022-09-04T20:07:03.545Z,43.72
2022-09-04T20:12:03.578Z,43.85
2022-09-04T20:17:03.502Z,44.03
2022-09-04T20:22:03.415Z,44.26
2022-09-04T20:27:03.296Z,44.59
2022-09-04T20:32:03.296Z,44.59
2022-09-04T20:37:03.196Z,44.73
2022-09-04T20:42:03.086Z,44.92
2022-09-04T20:52:43.030Z,45.02
2022-09-04T20:52:53.303Z,45.17
2022-09-04T20:59:16.584Z,45.26
2022-09-04T21:03:20.470Z,45.46
2022-09-04T21:07:03.742Z,45.56
2022-09-04T21:12:02.666Z,45.60
2022-09-04T21:17:02.864Z,45.70
2022-09-04T21:22:05.282Z,45.70
2022-09-04T21:27:03.572Z,45.80
2022-09-04T21:32:02.519Z,46.00
2022-09-04T21:37:02.370Z,46.05
2022-09-04T21:42:12.263Z,46.15
2022-09-04T21:47:08.608Z,46.10
2022-09-04T21:52:03.254Z,46.20
2022-09-04T22:02:32.245Z,46.35
2022-09-04T22:02:38.449Z,46.56
2022-09-04T22:08:49.797Z,46.71
2022-09-04T22:13:43.096Z,46.77
2022-09-04T22:17:02.928Z,47.03
2022-09-04T22:22:02.058Z,47.13
2022-09-04T22:27:01.669Z,47.26
2022-09-04T22:32:01.582Z,47.50
2022-09-04T22:37:01.577Z,47.66
2022-09-04T22:42:01.479Z,47.64
2022-09-04T22:47:01.515Z,48.04
2022-09-04T22:52:01.661Z,47.96
2022-09-04T22:57:02.293Z,48.29
2022-09-04T23:02:13.308Z,48.29
2022-09-04T23:10:05.096Z,48.29
2022-09-04T23:13:56.230Z,48.60
2022-09-04T23:17:02.009Z,48.85
2022-09-04T23:26:36.684Z,48.88
2022-09-04T23:27:02.221Z,48.77
2022-09-04T23:32:07.012Z,48.94
2022-09-04T23:37:01.759Z,48.99
2022-09-04T23:42:00.728Z,49.16
2022-09-04T23:47:00.763Z,49.37
2022-09-04T23:52:00.514Z,49.37
2022-09-04T23:57:00.537Z,49.71
